sensor_id;sensor_type;location;lat;lon;timestamp;temperature;humidity
32217;DHT22;18709;51.140;4.088;2022-10-31T00:02:03;16.20;90.00
32217;DHT22;18709;51.140;4.088;2022-10-31T00:04:29;16.20;90.10
32217;DHT22;18709;51.140;4.088;2022-10-31T00:06:54;16.20;90.00
32217;DHT22;18709;51.140;4.088;2022-10-31T00:09:20;16.10;90.00
32217;DHT22;18709;51.140;4.088;2022-10-31T00:11:46;16.10;89.80
32217;DHT22;18709;51.140;4.088;2022-10-31T00:14:11;16.10;89.40
32217;DHT22;18709;51.140;4.088;2022-10-31T00:16:37;16.10;89.10
32217;DHT22;18709;51.140;4.088;2022-10-31T00:19:05;16.00;89.20
32217;DHT22;18709;51.140;4.088;2022-10-31T00:21:31;16.00;89.60
32217;DHT22;18709;51.140;4.088;2022-10-31T00:23:58;16.00;89.00
32217;DHT22;18709;51.140;4.088;2022-10-31T00:26:24;15.90;89.10
32217;DHT22;18709;51.140;4.088;2022-10-31T00:28:51;15.90;89.00
32217;DHT22;18709;51.140;4.088;2022-10-31T00:31:17;15.90;88.70
32217;DHT22;18709;51.140;4.088;2022-10-31T00:33:43;15.80;88.90
32217;DHT22;18709;51.140;4.088;2022-10-31T00:36:15;15.80;89.00
32217;DHT22;18709;51.140;4.088;2022-10-31T00:38:42;15.70;89.60
32217;DHT22;18709;51.140;4.088;2022-10-31T00:41:08;15.70;90.00
32217;DHT22;18709;51.140;4.088;2022-10-31T00:43:34;15.60;89.90
32217;DHT22;18709;51.140;4.088;2022-10-31T00:46:00;15.60;89.70
32217;DHT22;18709;51.140;4.088;2022-10-31T00:48:26;15.50;89.70
32217;DHT22;18709;51.140;4.088;2022-10-31T00:50:51;15.40;89.70
32217;DHT22;18709;51.140;4.088;2022-10-31T00:53:17;15.50;89.30
32217;DHT22;18709;51.140;4.088;2022-10-31T00:55:43;15.40;89.30
32217;DHT22;18709;51.140;4.088;2022-10-31T00:58:08;15.30;89.20
32217;DHT22;18709;51.140;4.088;2022-10-31T01:00:34;15.30;89.50
32217;DHT22;18709;51.140;4.088;2022-10-31T01:03:00;15.20;89.70
32217;DHT22;18709;51.140;4.088;2022-10-31T01:05:25;15.30;89.60
32217;DHT22;18709;51.140;4.088;2022-10-31T01:07:51;15.20;89.70
32217;DHT22;18709;51.140;4.088;2022-10-31T01:10:17;15.20;89.70
32217;DHT22;18709;51.140;4.088;2022-10-31T01:12:45;15.20;89.20
32217;DHT22;18709;51.140;4.088;2022-10-31T01:15:12;15.20;89.10
32217;DHT22;18709;51.140;4.088;2022-10-31T01:17:39;15.10;89.50
32217;DHT22;18709;51.140;4.088;2022-10-31T01:20:05;15.10;89.70
32217;DHT22;18709;51.140;4.088;2022-10-31T01:22:32;15.00;89.80
32217;DHT22;18709;51.140;4.088;2022-10-31T01:24:58;15.00;89.80
32217;DHT22;18709;51.140;4.088;2022-10-31T01:27:24;15.00;90.10
32217;DHT22;18709;51.140;4.088;2022-10-31T01:29:50;14.90;89.70
32217;DHT22;18709;51.140;4.088;2022-10-31T01:32:16;14.90;89.70
32217;DHT22;18709;51.140;4.088;2022-10-31T01:34:41;14.90;89.80
32217;DHT22;18709;51.140;4.088;2022-10-31T01:37:07;14.90;89.90
32217;DHT22;18709;51.140;4.088;2022-10-31T01:39:33;14.90;90.00
32217;DHT22;18709;51.140;4.088;2022-10-31T01:41:58;14.80;90.10
32217;DHT22;18709;51.140;4.088;2022-10-31T01:47:10;14.80;90.10
32217;DHT22;18709;51.140;4.088;2022-10-31T01:54:51;14.70;90.10
32217;DHT22;18709;51.140;4.088;2022-10-31T01:57:20;14.70;90.20
32217;DHT22;18709;51.140;4.088;2022-10-31T01:59:49;14.70;89.90
32217;DHT22;18709;51.140;4.088;2022-10-31T02:02:18;14.70;89.60
32217;DHT22;18709;51.140;4.088;2022-10-31T02:04:45;14.70;89.60
32217;DHT22;18709;51.140;4.088;2022-10-31T02:07:36;14.70;89.30
32217;DHT22;18709;51.140;4.088;2022-10-31T02:10:03;14.60;89.80
32217;DHT22;18709;51.140;4.088;2022-10-31T02:12:31;14.60;89.40
32217;DHT22;18709;51.140;4.088;2022-10-31T02:14:59;14.50;89.40
32217;DHT22;18709;51.140;4.088;2022-10-31T02:17:25;14.50;89.40
32217;DHT22;18709;51.140;4.088;2022-10-31T02:20:15;14.50;89.40
32217;DHT22;18709;51.140;4.088;2022-10-31T02:31:42;14.40;89.60
32217;DHT22;18709;51.140;4.088;2022-10-31T02:34:36;14.40;89.80
32217;DHT22;18709;51.140;4.088;2022-10-31T02:37:13;14.30;89.60
32217;DHT22;18709;51.140;4.088;2022-10-31T02:39:48;14.30;89.70
32217;DHT22;18709;51.140;4.088;2022-10-31T02:42:26;14.30;89.50
32217;DHT22;18709;51.140;4.088;2022-10-31T02:45:14;14.30;89.60
32217;DHT22;18709;51.140;4.088;2022-10-31T02:47:45;14.20;89.40
32217;DHT22;18709;51.140;4.088;2022-10-31T02:50:45;14.20;90.10
32217;DHT22;18709;51.140;4.088;2022-10-31T02:53:03;14.20;90.00
32217;DHT22;18709;51.140;4.088;2022-10-31T02:57:58;14.10;89.80
32217;DHT22;18709;51.140;4.088;2022-10-31T03:00:26;14.10;89.80
32217;DHT22;18709;51.140;4.088;2022-10-31T03:10:47;14.00;89.70
32217;DHT22;18709;51.140;4.088;2022-10-31T03:15:56;14.10;89.70
32217;DHT22;18709;51.140;4.088;2022-10-31T03:18:33;14.00;89.50
32217;DHT22;18709;51.140;4.088;2022-10-31T03:23:49;14.00;89.40
32217;DHT22;18709;51.140;4.088;2022-10-31T03:26:16;14.00;89.40
32217;DHT22;18709;51.140;4.088;2022-10-31T03:28:59;14.00;89.50
32217;DHT22;18709;51.140;4.088;2022-10-31T03:31:30;14.00;89.70
32217;DHT22;18709;51.140;4.088;2022-10-31T03:34:00;14.00;89.20
32217;DHT22;18709;51.140;4.088;2022-10-31T03:36:27;13.90;89.20
32217;DHT22;18709;51.140;4.088;2022-10-31T03:38:55;14.00;89.00
32217;DHT22;18709;51.140;4.088;2022-10-31T03:41:25;14.00;88.90
32217;DHT22;18709;51.140;4.088;2022-10-31T03:44:01;14.00;88.90
32217;DHT22;18709;51.140;4.088;2022-10-31T03:46:29;13.90;89.00
32217;DHT22;18709;51.140;4.088;2022-10-31T03:48:56;13.90;88.90
32217;DHT22;18709;51.140;4.088;2022-10-31T03:54:05;13.90;89.10
32217;DHT22;18709;51.140;4.088;2022-10-31T03:56:36;13.80;89.00
32217;DHT22;18709;51.140;4.088;2022-10-31T03:59:08;13.70;88.90
32217;DHT22;18709;51.140;4.088;2022-10-31T04:01:38;13.70;89.10
32217;DHT22;18709;51.140;4.088;2022-10-31T04:04:06;13.70;89.10
32217;DHT22;18709;51.140;4.088;2022-10-31T04:06:34;13.70;89.20
32217;DHT22;18709;51.140;4.088;2022-10-31T04:09:03;13.70;89.30
32217;DHT22;18709;51.140;4.088;2022-10-31T04:11:34;13.60;89.60
32217;DHT22;18709;51.140;4.088;2022-10-31T04:14:01;13.70;89.80
32217;DHT22;18709;51.140;4.088;2022-10-31T04:16:27;13.70;89.00
32217;DHT22;18709;51.140;4.088;2022-10-31T04:18:53;13.70;88.90
32217;DHT22;18709;51.140;4.088;2022-10-31T04:21:27;13.70;89.40
32217;DHT22;18709;51.140;4.088;2022-10-31T04:23:53;13.70;89.30
32217;DHT22;18709;51.140;4.088;2022-10-31T04:26:19;13.70;89.10
32217;DHT22;18709;51.140;4.088;2022-10-31T04:28:45;13.70;88.90
32217;DHT22;18709;51.140;4.088;2022-10-31T04:31:11;13.70;88.80
32217;DHT22;18709;51.140;4.088;2022-10-31T04:33:37;13.70;88.70
32217;DHT22;18709;51.140;4.088;2022-10-31T04:36:04;13.70;88.70
32217;DHT22;18709;51.140;4.088;2022-10-31T04:38:30;13.70;88.30
32217;DHT22;18709;51.140;4.088;2022-10-31T04:40:56;13.60;88.30
32217;DHT22;18709;51.140;4.088;2022-10-31T04:43:22;13.50;88.50
32217;DHT22;18709;51.140;4.088;2022-10-31T04:45:48;13.50;88.80
32217;DHT22;18709;51.140;4.088;2022-10-31T04:48:14;13.50;88.80
32217;DHT22;18709;51.140;4.088;2022-10-31T04:50:40;13.50;89.10
32217;DHT22;18709;51.140;4.088;2022-10-31T04:53:05;13.40;89.00
32217;DHT22;18709;51.140;4.088;2022-10-31T04:55:31;13.40;88.90
32217;DHT22;18709;51.140;4.088;2022-10-31T04:57:57;13.40;89.00
32217;DHT22;18709;51.140;4.088;2022-10-31T05:00:23;13.40;89.10
32217;DHT22;18709;51.140;4.088;2022-10-31T05:02:51;13.40;88.80
32217;DHT22;18709;51.140;4.088;2022-10-31T05:05:19;13.40;88.80
32217;DHT22;18709;51.140;4.088;2022-10-31T05:07:47;13.40;88.80
32217;DHT22;18709;51.140;4.088;2022-10-31T05:10:16;13.30;88.90
32217;DHT22;18709;51.140;4.088;2022-10-31T05:12:50;13.40;88.70
32217;DHT22;18709;51.140;4.088;2022-10-31T05:15:17;13.30;88.60
32217;DHT22;18709;51.140;4.088;2022-10-31T05:17:43;13.30;88.70
32217;DHT22;18709;51.140;4.088;2022-10-31T05:20:09;13.20;88.60
32217;DHT22;18709;51.140;4.088;2022-10-31T05:22:35;13.20;88.70
32217;DHT22;18709;51.140;4.088;2022-10-31T05:25:01;13.30;88.30
32217;DHT22;18709;51.140;4.088;2022-10-31T05:27:27;13.30;88.20
32217;DHT22;18709;51.140;4.088;2022-10-31T05:29:52;13.30;88.00
32217;DHT22;18709;51.140;4.088;2022-10-31T05:32:18;13.20;88.20
32217;DHT22;18709;51.140;4.088;2022-10-31T05:34:44;13.20;88.20
32217;DHT22;18709;51.140;4.088;2022-10-31T05:37:09;13.10;88.60
32217;DHT22;18709;51.140;4.088;2022-10-31T05:39:35;13.10;88.70
32217;DHT22;18709;51.140;4.088;2022-10-31T05:42:01;13.10;88.60
32217;DHT22;18709;51.140;4.088;2022-10-31T05:44:26;13.10;88.60
32217;DHT22;18709;51.140;4.088;2022-10-31T05:46:52;13.10;88.60
32217;DHT22;18709;51.140;4.088;2022-10-31T05:49:18;13.10;88.60
32217;DHT22;18709;51.140;4.088;2022-10-31T05:51:43;13.10;88.60
32217;DHT22;18709;51.140;4.088;2022-10-31T05:54:09;13.20;88.40
32217;DHT22;18709;51.140;4.088;2022-10-31T05:56:35;13.10;88.60
32217;DHT22;18709;51.140;4.088;2022-10-31T05:59:00;13.10;88.70
32217;DHT22;18709;51.140;4.088;2022-10-31T06:01:26;13.10;88.90
32217;DHT22;18709;51.140;4.088;2022-10-31T06:03:52;13.00;89.00
32217;DHT22;18709;51.140;4.088;2022-10-31T06:06:17;13.10;89.20
32217;DHT22;18709;51.140;4.088;2022-10-31T06:08:43;13.10;89.20
32217;DHT22;18709;51.140;4.088;2022-10-31T06:11:09;13.10;89.20
32217;DHT22;18709;51.140;4.088;2022-10-31T06:13:34;13.10;89.10
32217;DHT22;18709;51.140;4.088;2022-10-31T06:16:00;13.10;89.30
32217;DHT22;18709;51.140;4.088;2022-10-31T06:18:25;13.10;89.50
32217;DHT22;18709;51.140;4.088;2022-10-31T06:20:51;13.10;89.80
32217;DHT22;18709;51.140;4.088;2022-10-31T06:23:17;13.10;90.00
32217;DHT22;18709;51.140;4.088;2022-10-31T06:25:42;13.10;90.20
32217;DHT22;18709;51.140;4.088;2022-10-31T06:28:08;13.20;90.40
32217;DHT22;18709;51.140;4.088;2022-10-31T06:30:34;13.20;90.50
32217;DHT22;18709;51.140;4.088;2022-10-31T06:33:04;13.30;90.60
32217;DHT22;18709;51.140;4.088;2022-10-31T06:35:30;13.30;90.70
32217;DHT22;18709;51.140;4.088;2022-10-31T06:37:56;13.40;90.80
32217;DHT22;18709;51.140;4.088;2022-10-31T06:40:22;13.40;90.90
32217;DHT22;18709;51.140;4.088;2022-10-31T06:42:55;13.50;91.10
32217;DHT22;18709;51.140;4.088;2022-10-31T06:45:21;13.50;91.10
32217;DHT22;18709;51.140;4.088;2022-10-31T06:47:53;13.60;91.20
32217;DHT22;18709;51.140;4.088;2022-10-31T06:50:20;13.60;91.40
32217;DHT22;18709;51.140;4.088;2022-10-31T06:52:54;13.60;91.40
32217;DHT22;18709;51.140;4.088;2022-10-31T06:55:20;13.70;91.30
32217;DHT22;18709;51.140;4.088;2022-10-31T06:57:59;13.70;91.20
32217;DHT22;18709;51.140;4.088;2022-10-31T07:00:26;13.80;91.50
32217;DHT22;18709;51.140;4.088;2022-10-31T07:03:12;13.90;91.60
32217;DHT22;18709;51.140;4.088;2022-10-31T07:05:39;13.90;91.80
32217;DHT22;18709;51.140;4.088;2022-10-31T07:08:07;14.00;91.90
32217;DHT22;18709;51.140;4.088;2022-10-31T07:10:35;14.00;92.00
32217;DHT22;18709;51.140;4.088;2022-10-31T07:13:04;14.10;92.10
32217;DHT22;18709;51.140;4.088;2022-10-31T07:15:33;14.10;92.30
32217;DHT22;18709;51.140;4.088;2022-10-31T07:18:00;14.20;92.30
32217;DHT22;18709;51.140;4.088;2022-10-31T07:20:30;14.20;92.30
32217;DHT22;18709;51.140;4.088;2022-10-31T07:22:56;14.30;92.30
32217;DHT22;18709;51.140;4.088;2022-10-31T07:25:22;14.30;92.20
32217;DHT22;18709;51.140;4.088;2022-10-31T07:27:48;14.40;92.10
32217;DHT22;18709;51.140;4.088;2022-10-31T07:30:14;14.40;92.10
32217;DHT22;18709;51.140;4.088;2022-10-31T07:32:49;14.40;92.20
32217;DHT22;18709;51.140;4.088;2022-10-31T07:35:18;14.40;92.20
32217;DHT22;18709;51.140;4.088;2022-10-31T07:37:43;14.50;92.40
32217;DHT22;18709;51.140;4.088;2022-10-31T07:40:10;14.60;92.40
32217;DHT22;18709;51.140;4.088;2022-10-31T07:42:37;14.60;92.50
32217;DHT22;18709;51.140;4.088;2022-10-31T07:45:04;14.70;92.50
32217;DHT22;18709;51.140;4.088;2022-10-31T07:47:30;14.70;92.70
32217;DHT22;18709;51.140;4.088;2022-10-31T07:50:02;14.80;92.70
32217;DHT22;18709;51.140;4.088;2022-10-31T07:52:28;14.90;92.60
32217;DHT22;18709;51.140;4.088;2022-10-31T07:54:54;15.00;92.60
32217;DHT22;18709;51.140;4.088;2022-10-31T07:57:19;15.00;92.50
32217;DHT22;18709;51.140;4.088;2022-10-31T07:59:45;15.00;92.50
32217;DHT22;18709;51.140;4.088;2022-10-31T08:02:11;15.10;92.50
32217;DHT22;18709;51.140;4.088;2022-10-31T08:04:36;15.20;92.50
32217;DHT22;18709;51.140;4.088;2022-10-31T08:07:02;15.20;92.50
32217;DHT22;18709;51.140;4.088;2022-10-31T08:09:28;15.30;92.60
32217;DHT22;18709;51.140;4.088;2022-10-31T08:11:53;15.30;92.60
32217;DHT22;18709;51.140;4.088;2022-10-31T08:14:19;15.30;92.70
32217;DHT22;18709;51.140;4.088;2022-10-31T08:16:45;15.30;92.70
32217;DHT22;18709;51.140;4.088;2022-10-31T08:19:10;15.40;92.80
32217;DHT22;18709;51.140;4.088;2022-10-31T08:21:36;15.40;92.80
32217;DHT22;18709;51.140;4.088;2022-10-31T08:24:02;15.40;92.70
32217;DHT22;18709;51.140;4.088;2022-10-31T08:26:27;15.50;92.70
32217;DHT22;18709;51.140;4.088;2022-10-31T08:28:53;15.50;92.70
32217;DHT22;18709;51.140;4.088;2022-10-31T08:31:20;15.50;92.80
32217;DHT22;18709;51.140;4.088;2022-10-31T08:33:46;15.50;92.90
32217;DHT22;18709;51.140;4.088;2022-10-31T08:36:12;15.50;92.90
32217;DHT22;18709;51.140;4.088;2022-10-31T08:38:37;15.60;92.90
32217;DHT22;18709;51.140;4.088;2022-10-31T08:41:03;15.70;93.00
32217;DHT22;18709;51.140;4.088;2022-10-31T08:43:29;15.70;92.90
32217;DHT22;18709;51.140;4.088;2022-10-31T08:45:54;15.80;92.90
32217;DHT22;18709;51.140;4.088;2022-10-31T08:48:20;15.90;92.80
32217;DHT22;18709;51.140;4.088;2022-10-31T08:50:47;15.90;92.80
32217;DHT22;18709;51.140;4.088;2022-10-31T08:53:17;16.00;92.70
32217;DHT22;18709;51.140;4.088;2022-10-31T08:55:44;16.10;92.60
32217;DHT22;18709;51.140;4.088;2022-10-31T08:58:13;16.10;92.50
32217;DHT22;18709;51.140;4.088;2022-10-31T09:00:39;16.10;92.50
32217;DHT22;18709;51.140;4.088;2022-10-31T09:03:08;16.10;92.40
32217;DHT22;18709;51.140;4.088;2022-10-31T09:05:34;16.10;92.50
32217;DHT22;18709;51.140;4.088;2022-10-31T09:08:02;16.10;92.50
32217;DHT22;18709;51.140;4.088;2022-10-31T09:10:28;16.20;92.40
32217;DHT22;18709;51.140;4.088;2022-10-31T09:12:59;16.30;92.50
32217;DHT22;18709;51.140;4.088;2022-10-31T09:15:26;16.30;92.70
32217;DHT22;18709;51.140;4.088;2022-10-31T09:17:52;16.40;92.50
32217;DHT22;18709;51.140;4.088;2022-10-31T09:20:18;16.40;92.50
32217;DHT22;18709;51.140;4.088;2022-10-31T09:22:44;16.50;92.50
32217;DHT22;18709;51.140;4.088;2022-10-31T09:25:10;16.60;92.50
32217;DHT22;18709;51.140;4.088;2022-10-31T09:27:36;16.60;92.50
32217;DHT22;18709;51.140;4.088;2022-10-31T09:30:03;16.60;92.40
32217;DHT22;18709;51.140;4.088;2022-10-31T09:32:28;16.60;92.10
32217;DHT22;18709;51.140;4.088;2022-10-31T09:34:54;16.60;92.40
32217;DHT22;18709;51.140;4.088;2022-10-31T09:37:20;16.60;92.40
32217;DHT22;18709;51.140;4.088;2022-10-31T09:39:45;16.70;92.40
32217;DHT22;18709;51.140;4.088;2022-10-31T09:48:59;16.70;92.60
32217;DHT22;18709;51.140;4.088;2022-10-31T09:51:10;16.80;92.60
32217;DHT22;18709;51.140;4.088;2022-10-31T09:56:25;16.80;92.60
32217;DHT22;18709;51.140;4.088;2022-10-31T09:59:00;16.90;92.70
32217;DHT22;18709;51.140;4.088;2022-10-31T10:04:17;17.10;92.40
32217;DHT22;18709;51.140;4.088;2022-10-31T10:06:50;17.10;92.30
32217;DHT22;18709;51.140;4.088;2022-10-31T10:09:17;17.10;92.30
32217;DHT22;18709;51.140;4.088;2022-10-31T10:12:00;17.10;92.20
32217;DHT22;18709;51.140;4.088;2022-10-31T10:26:22;17.00;92.20
32217;DHT22;18709;51.140;4.088;2022-10-31T10:29:06;17.00;92.30
32217;DHT22;18709;51.140;4.088;2022-10-31T10:31:38;17.00;92.40
32217;DHT22;18709;51.140;4.088;2022-10-31T10:34:19;17.10;92.50
32217;DHT22;18709;51.140;4.088;2022-10-31T10:37:00;17.10;92.50
32217;DHT22;18709;51.140;4.088;2022-10-31T10:41:59;17.30;92.40
32217;DHT22;18709;51.140;4.088;2022-10-31T10:44:47;17.40;92.40
32217;DHT22;18709;51.140;4.088;2022-10-31T10:47:41;17.40;92.40
32217;DHT22;18709;51.140;4.088;2022-10-31T10:50:18;17.70;92.50
32217;DHT22;18709;51.140;4.088;2022-10-31T10:53:18;17.90;92.50
32217;DHT22;18709;51.140;4.088;2022-10-31T10:56:07;18.30;92.10
32217;DHT22;18709;51.140;4.088;2022-10-31T10:58:35;18.60;92.20
32217;DHT22;18709;51.140;4.088;2022-10-31T11:01:10;18.80;91.40
32217;DHT22;18709;51.140;4.088;2022-10-31T11:03:36;19.10;90.80
32217;DHT22;18709;51.140;4.088;2022-10-31T11:06:02;19.30;90.30
32217;DHT22;18709;51.140;4.088;2022-10-31T11:08:29;19.40;89.60
32217;DHT22;18709;51.140;4.088;2022-10-31T11:13:43;19.60;88.40
32217;DHT22;18709;51.140;4.088;2022-10-31T11:16:12;19.60;88.70
32217;DHT22;18709;51.140;4.088;2022-10-31T11:18:45;19.60;88.90
32217;DHT22;18709;51.140;4.088;2022-10-31T11:21:28;19.70;88.40
32217;DHT22;18709;51.140;4.088;2022-10-31T11:26:29;19.70;87.90
32217;DHT22;18709;51.140;4.088;2022-10-31T11:28:59;19.80;88.00
32217;DHT22;18709;51.140;4.088;2022-10-31T11:31:26;19.70;87.90
32217;DHT22;18709;51.140;4.088;2022-10-31T11:33:58;19.70;87.90
32217;DHT22;18709;51.140;4.088;2022-10-31T11:38:53;19.70;88.00
32217;DHT22;18709;51.140;4.088;2022-10-31T11:41:28;19.50;87.50
32217;DHT22;18709;51.140;4.088;2022-10-31T11:44:04;19.50;88.40
32217;DHT22;18709;51.140;4.088;2022-10-31T11:48:59;19.60;88.30
32217;DHT22;18709;51.140;4.088;2022-10-31T11:51:30;19.70;88.60
32217;DHT22;18709;51.140;4.088;2022-10-31T11:54:01;19.70;87.80
32217;DHT22;18709;51.140;4.088;2022-10-31T11:56:37;19.70;87.50
32217;DHT22;18709;51.140;4.088;2022-10-31T11:59:05;19.70;87.50
32217;DHT22;18709;51.140;4.088;2022-10-31T12:01:32;19.70;87.70
32217;DHT22;18709;51.140;4.088;2022-10-31T12:04:08;19.70;87.40
32217;DHT22;18709;51.140;4.088;2022-10-31T12:06:36;19.60;87.50
32217;DHT22;18709;51.140;4.088;2022-10-31T12:09:09;19.50;88.10
32217;DHT22;18709;51.140;4.088;2022-10-31T12:17:05;19.50;88.20
32217;DHT22;18709;51.140;4.088;2022-10-31T12:31:06;19.70;88.50
32217;DHT22;18709;51.140;4.088;2022-10-31T12:34:13;19.80;87.70
32217;DHT22;18709;51.140;4.088;2022-10-31T12:42:18;20.00;87.20
32217;DHT22;18709;51.140;4.088;2022-10-31T13:00:42;20.40;86.70
32217;DHT22;18709;51.140;4.088;2022-10-31T13:05:41;20.20;86.60
32217;DHT22;18709;51.140;4.088;2022-10-31T13:08:10;20.10;86.80
32217;DHT22;18709;51.140;4.088;2022-10-31T13:10:44;20.20;87.40
32217;DHT22;18709;51.140;4.088;2022-10-31T13:13:19;20.20;87.20
32217;DHT22;18709;51.140;4.088;2022-10-31T13:15:59;20.20;87.30
32217;DHT22;18709;51.140;4.088;2022-10-31T13:21:25;20.30;87.20
32217;DHT22;18709;51.140;4.088;2022-10-31T13:23:52;20.40;87.00
32217;DHT22;18709;51.140;4.088;2022-10-31T13:26:47;20.40;86.90
32217;DHT22;18709;51.140;4.088;2022-10-31T13:29:23;20.50;86.40
32217;DHT22;18709;51.140;4.088;2022-10-31T13:31:51;20.60;86.50
32217;DHT22;18709;51.140;4.088;2022-10-31T13:34:31;20.70;86.10
32217;DHT22;18709;51.140;4.088;2022-10-31T13:42:22;21.20;84.50
32217;DHT22;18709;51.140;4.088;2022-10-31T13:44:49;21.40;85.00
32217;DHT22;18709;51.140;4.088;2022-10-31T13:47:27;21.90;83.20
32217;DHT22;18709;51.140;4.088;2022-10-31T13:52:44;22.70;80.60
32217;DHT22;18709;51.140;4.088;2022-10-31T13:55:39;23.00;79.30
32217;DHT22;18709;51.140;4.088;2022-10-31T14:01:12;23.80;77.00
32217;DHT22;18709;51.140;4.088;2022-10-31T14:03:41;24.10;75.90
32217;DHT22;18709;51.140;4.088;2022-10-31T14:06:09;24.30;75.60
32217;DHT22;18709;51.140;4.088;2022-10-31T14:08:37;24.40;74.80
32217;DHT22;18709;51.140;4.088;2022-10-31T14:11:06;24.40;74.40
32217;DHT22;18709;51.140;4.088;2022-10-31T14:13:38;24.50;74.00
32217;DHT22;18709;51.140;4.088;2022-10-31T14:16:24;24.40;74.50
32217;DHT22;18709;51.140;4.088;2022-10-31T14:18:58;24.50;74.60
32217;DHT22;18709;51.140;4.088;2022-10-31T14:23:52;24.60;74.20
32217;DHT22;18709;51.140;4.088;2022-10-31T14:26:20;24.60;74.10
32217;DHT22;18709;51.140;4.088;2022-10-31T14:28:48;24.60;73.90
32217;DHT22;18709;51.140;4.088;2022-10-31T14:31:37;24.60;73.90
32217;DHT22;18709;51.140;4.088;2022-10-31T14:36:58;24.50;74.10
32217;DHT22;18709;51.140;4.088;2022-10-31T14:39:54;24.40;74.40
32217;DHT22;18709;51.140;4.088;2022-10-31T14:50:23;23.80;75.80
32217;DHT22;18709;51.140;4.088;2022-10-31T14:52:53;23.60;76.40
32217;DHT22;18709;51.140;4.088;2022-10-31T14:55:20;23.40;76.70
32217;DHT22;18709;51.140;4.088;2022-10-31T14:58:06;23.30;77.20
32217;DHT22;18709;51.140;4.088;2022-10-31T15:00:33;23.10;77.80
32217;DHT22;18709;51.140;4.088;2022-10-31T15:03:21;23.00;77.90
32217;DHT22;18709;51.140;4.088;2022-10-31T15:05:49;22.80;78.50
32217;DHT22;18709;51.140;4.088;2022-10-31T15:08:30;22.50;79.10
32217;DHT22;18709;51.140;4.088;2022-10-31T15:10:56;22.30;79.90
32217;DHT22;18709;51.140;4.088;2022-10-31T15:13:22;22.10;80.40
32217;DHT22;18709;51.140;4.088;2022-10-31T15:15:50;21.80;80.90
32217;DHT22;18709;51.140;4.088;2022-10-31T15:18:25;21.70;81.50
32217;DHT22;18709;51.140;4.088;2022-10-31T15:20:53;21.50;81.70
32217;DHT22;18709;51.140;4.088;2022-10-31T15:23:25;21.40;81.90
32217;DHT22;18709;51.140;4.088;2022-10-31T15:26:02;21.30;82.30
32217;DHT22;18709;51.140;4.088;2022-10-31T15:28:29;21.10;82.00
32217;DHT22;18709;51.140;4.088;2022-10-31T15:30:59;21.00;82.30
32217;DHT22;18709;51.140;4.088;2022-10-31T15:33:27;20.90;82.50
32217;DHT22;18709;51.140;4.088;2022-10-31T15:36:01;20.70;82.90
32217;DHT22;18709;51.140;4.088;2022-10-31T15:38:28;20.60;83.10
32217;DHT22;18709;51.140;4.088;2022-10-31T15:41:01;20.50;83.40
32217;DHT22;18709;51.140;4.088;2022-10-31T15:43:35;20.50;83.60
32217;DHT22;18709;51.140;4.088;2022-10-31T15:46:03;20.40;83.70
32217;DHT22;18709;51.140;4.088;2022-10-31T15:48:29;20.30;84.60
32217;DHT22;18709;51.140;4.088;2022-10-31T15:51:00;20.30;84.20
32217;DHT22;18709;51.140;4.088;2022-10-31T15:53:36;20.30;84.40
32217;DHT22;18709;51.140;4.088;2022-10-31T15:56:08;20.20;84.60
32217;DHT22;18709;51.140;4.088;2022-10-31T15:58:43;20.20;84.80
32217;DHT22;18709;51.140;4.088;2022-10-31T16:01:31;20.20;85.00
32217;DHT22;18709;51.140;4.088;2022-10-31T16:04:03;20.10;85.10
32217;DHT22;18709;51.140;4.088;2022-10-31T16:06:30;20.10;85.40
32217;DHT22;18709;51.140;4.088;2022-10-31T16:08:57;20.00;85.50
32217;DHT22;18709;51.140;4.088;2022-10-31T16:11:36;19.90;85.70
32217;DHT22;18709;51.140;4.088;2022-10-31T16:14:20;19.80;85.80
32217;DHT22;18709;51.140;4.088;2022-10-31T16:16:49;19.70;86.10
32217;DHT22;18709;51.140;4.088;2022-10-31T16:19:35;19.70;86.30
32217;DHT22;18709;51.140;4.088;2022-10-31T16:22:27;19.60;86.60
32217;DHT22;18709;51.140;4.088;2022-10-31T16:25:04;19.50;86.80
32217;DHT22;18709;51.140;4.088;2022-10-31T16:27:34;19.40;87.20
32217;DHT22;18709;51.140;4.088;2022-10-31T16:30:02;19.30;87.20
32217;DHT22;18709;51.140;4.088;2022-10-31T16:32:35;19.30;87.30
32217;DHT22;18709;51.140;4.088;2022-10-31T16:37:33;19.20;87.70
32217;DHT22;18709;51.140;4.088;2022-10-31T16:39:59;19.10;87.80
32217;DHT22;18709;51.140;4.088;2022-10-31T16:42:25;19.00;88.00
32217;DHT22;18709;51.140;4.088;2022-10-31T16:44:51;18.90;88.10
32217;DHT22;18709;51.140;4.088;2022-10-31T16:47:18;18.90;88.40
32217;DHT22;18709;51.140;4.088;2022-10-31T16:49:47;18.80;88.40
32217;DHT22;18709;51.140;4.088;2022-10-31T16:52:13;18.80;88.60
32217;DHT22;18709;51.140;4.088;2022-10-31T16:54:39;18.70;88.80
32217;DHT22;18709;51.140;4.088;2022-10-31T16:57:05;18.70;88.80
32217;DHT22;18709;51.140;4.088;2022-10-31T16:59:32;18.60;89.00
32217;DHT22;18709;51.140;4.088;2022-10-31T17:02:00;18.50;89.80
32217;DHT22;18709;51.140;4.088;2022-10-31T17:04:26;18.50;89.90
32217;DHT22;18709;51.140;4.088;2022-10-31T17:06:52;18.50;90.00
32217;DHT22;18709;51.140;4.088;2022-10-31T17:09:17;18.40;90.00
32217;DHT22;18709;51.140;4.088;2022-10-31T17:11:48;18.50;90.10
32217;DHT22;18709;51.140;4.088;2022-10-31T17:14:16;18.50;90.00
32217;DHT22;18709;51.140;4.088;2022-10-31T17:16:43;18.50;89.90
32217;DHT22;18709;51.140;4.088;2022-10-31T17:19:12;18.50;89.90
32217;DHT22;18709;51.140;4.088;2022-10-31T17:21:38;18.40;90.20
32217;DHT22;18709;51.140;4.088;2022-10-31T17:24:05;18.30;90.10
32217;DHT22;18709;51.140;4.088;2022-10-31T17:26:31;18.30;90.00
32217;DHT22;18709;51.140;4.088;2022-10-31T17:28:56;18.30;90.00
32217;DHT22;18709;51.140;4.088;2022-10-31T17:31:29;18.20;90.10
32217;DHT22;18709;51.140;4.088;2022-10-31T17:33:56;18.20;90.10
32217;DHT22;18709;51.140;4.088;2022-10-31T17:36:22;18.20;90.10
32217;DHT22;18709;51.140;4.088;2022-10-31T17:38:48;18.20;90.10
32217;DHT22;18709;51.140;4.088;2022-10-31T17:41:14;18.20;90.20
32217;DHT22;18709;51.140;4.088;2022-10-31T17:43:40;18.20;90.30
32217;DHT22;18709;51.140;4.088;2022-10-31T17:46:06;18.10;90.40
32217;DHT22;18709;51.140;4.088;2022-10-31T17:48:35;18.10;90.30
32217;DHT22;18709;51.140;4.088;2022-10-31T17:51:03;18.10;90.50
32217;DHT22;18709;51.140;4.088;2022-10-31T17:53:30;18.00;90.50
32217;DHT22;18709;51.140;4.088;2022-10-31T17:56:02;18.00;90.40
32217;DHT22;18709;51.140;4.088;2022-10-31T17:58:28;18.00;90.50
32217;DHT22;18709;51.140;4.088;2022-10-31T18:00:54;18.00;90.40
32217;DHT22;18709;51.140;4.088;2022-10-31T18:03:20;17.90;90.60
32217;DHT22;18709;51.140;4.088;2022-10-31T18:05:57;17.90;90.60
32217;DHT22;18709;51.140;4.088;2022-10-31T18:08:30;17.90;90.60